Denpasar, Indonesia

7:29 AM WITA on October 23, 2014 (GMT +0800)
BALI INTL | Change Station
CLOSE
Current Station
Airport
Location: BALI INTL,
Elevation: 13 ft
Nearby Weather Stations

Elev 13 ft 8.75 °S, 115.17 °E | Updated 29 minutes ago

Partly Cloudy
Partly Cloudy
79 °F
Feels Like 79 °F
N
1
Wind Variable Wind from Variable

Today
High -- | Low -- °F
--% Chance of Precip.
Yesterday
High -- | Low -- °F
Precip. -- in
5:53 AM 6:14 PM
Waning Crescent, 1% visible
Pressure 29.89 in
Visibility 6.2 miles
Clouds Few 1700 ft
Dew Point 75 °F
Humidity 89%
Rainfall 0.00 in
Snow Depth Not available.
UV 1 out of 12
Pollen Not available.
Air Quality Not available.
Flu Activity Not available.
METAR WADD 222300Z VRB01KT 9999 FEW017 26/24 Q1012 NOSIG

More Conditions Fewer Conditions

Pressure 29.89 in
Visibility 6.2 miles
Clouds Few 1700 ft
Dew Point 75 °F
Humidity 89%
Rainfall 0.00 in
Snow Depth Not available.
UV 1 out of 12
Pollen Not available.
Air Quality Not available.
Flu Activity Not available.
METAR WADD 222300Z VRB01KT 9999 FEW017 26/24 Q1012 NOSIG

More Conditions Fewer Conditions

10-Day Weather Forecast

Almanac

Astronomy

Oct. 23, 2014 Rise Set
Actual Time 5:53 AM WITA 6:14 PM WITA
Civil Twilight 5:31 AM WITA 6:35 PM WITA
Nautical Twilight 5:06 AM WITA 7:00 PM WITA
Astronomical Twilight 4:41 AM WITA 7:25 PM WITA
Moon 5:14 AM WITA (10/23) 5:47 PM WITA (10/23)
Length of Visible Light 13h 03m
Length of Day
12h 20m
Tomorrow will be 0m 27s longer.
Waning Crescent, 1% of the Moon is Illuminated
Oct 22
Waning Crescent
Oct 23
New
Oct 30
First Quarter
Nov 6
Full
Nov 14
Last Quarter

Yesterday's Extremes

Country Highs Country Lows

Community

WunderPhotos

Upload Photos

1,764,078 photos uploaded!

WunderBlogs® & News

Nearby

Snow Depth

Not available.

Earthquake Activity

City Distance Mag. Time & Date
No recent earthquake activity has been reported nearby.
Minimum magnitude displayed is 2.5.

Coastal Water Temperatures

Place Temperature
No Stations Reporting

Nearby Weather Stations